Latest Weather Observations for Cape Bruny AWS

IDT60901

Issued at 9:01 pm EDT Sunday 24 January 2021 (issued every 10 minutes, with the page automatically refreshed every 10 minutes)

About weather observations | Map of Hobart area stations | Latest observations for Hobart area | Other Formats
Station Details ID: 094198 Name: CAPE BRUNY (CAPE BRUNY) Lat: -43.49 Lon: 147.14 Height: 59.7 m
Data from the previous 72 hours. | See also: Recent months at Cape Bruny AWS
Date/Time
EDT
Temp
°C
App
Temp
°C
Dew
Point
°C
Rel
Hum
%
Delta-T
°C
Wind Press
QNH
hPa
Press
MSL
hPa
Rain since
9am
mm
Dir  Spd
km/h
Gust
km/h
Spd
kts
Gust
kts
24/09:00pm 15.4 15.1 12.7 84 1.5 WSW 6 7 3 4 1005.3 1005.2 0.0
24/08:30pm 15.6 15.2 12.9 84 1.5 ESE 7 11 4 6 1004.8 1004.7 0.0
24/08:00pm 15.8 14.6 12.9 83 1.6 ESE 11 15 6 8 1005.3 1005.2 0.0
24/07:30pm 16.2 15.1 13.1 82 1.7 S 11 17 6 9 1006.0 1005.9 0.0
24/07:00pm 16.6 15.0 12.9 79 2.1 ESE 13 17 7 9 1005.4 1005.3 0.0
24/06:30pm 17.0 16.0 13.3 79 2.1 SSE 11 13 6 7 1006.0 1005.9 0.0
24/06:00pm 16.0 13.6 12.7 81 1.8 ESE 17 19 9 10 1005.6 1005.5 0.0
24/05:30pm 16.4 14.0 12.6 78 2.1 SSE 17 20 9 11 1006.3 1006.2 0.0
24/05:00pm 16.8 14.4 12.5 76 2.4 S 17 22 9 12 1007.3 1007.2 0.0
24/04:30pm 18.9 16.3 13.1 69 3.3 SSE 19 24 10 13 1006.7 1006.6 0.0
24/04:00pm 18.8 16.1 13.6 72 3.0 S 20 26 11 14 1007.1 1007.0 0.0
24/03:30pm 19.0 16.3 13.4 70 3.2 SSE 20 24 11 13 1007.4 1007.3 0.0
24/03:00pm 18.2 14.9 12.9 71 3.0 SSE 22 26 12 14 1007.1 1007.0 0.0
24/02:30pm 18.7 16.1 13.8 73 2.8 SSE 20 26 11 14 1007.8 1007.7 0.0
24/02:00pm 18.3 15.3 12.5 69 3.2 SSE 20 26 11 14 1008.0 1007.9 0.0
24/01:30pm 19.6 16.8 13.3 67 3.6 SSE 20 24 11 13 1008.2 1008.1 0.0
24/01:00pm 19.0 15.8 13.0 68 3.4 SSE 22 26 12 14 1008.5 1008.4 0.0
24/12:30pm 18.7 15.9 12.5 67 3.5 S 19 28 10 15 1008.4 1008.3 0.0
24/12:00pm 19.3 17.0 13.0 67 3.6 SE 17 24 9 13 1008.5 1008.4 0.0
24/11:30am 19.5 17.1 13.7 69 3.3 SSE 19 22 10 12 1008.8 1008.7 0.0
24/11:00am 19.4 17.5 13.1 67 3.6 ESE 15 20 8 11 1008.8 1008.7 0.0
24/10:30am 19.3 17.3 12.8 66 3.7 SSE 15 17 8 9 1009.5 1009.4 0.0
24/10:00am 18.8 17.3 13.0 69 3.3 ESE 13 19 7 10 1009.8 1009.7 0.0
24/09:30am 18.4 17.3 13.1 71 3.0 S 11 17 6 9 1010.2 1010.1 0.0
24/09:00am 17.4 16.6 11.7 69 3.1 WSW 7 9 4 5 1010.3 1010.2 0.0
24/08:30am 17.3 16.8 12.8 75 2.5 N 7 13 4 7 1010.0 1009.9 0.0
24/08:00am 15.7 15.9 13.0 84 1.5 S 4 7 2 4 1010.1 1010.0 0.0
24/07:30am 14.8 15.0 13.0 89 1.0 NW 4 7 2 4 1009.9 1009.8 0.0
24/07:00am 14.3 15.1 12.5 89 1.0 CALM 0 0 0 0 1009.5 1009.4 0.0
24/06:30am 13.8 13.0 11.8 88 1.1 SW 7 11 4 6 1009.1 1009.0 0.0
24/06:00am 14.1 13.1 12.3 89 1.0 SW 9 17 5 9 1009.0 1008.9 0.0
24/05:30am 14.2 12.4 12.2 88 1.1 SW 13 17 7 9 1008.8 1008.7 0.0
24/05:00am 14.4 12.3 12.3 87 1.1 SW 15 22 8 12 1008.7 1008.6 0.0
24/04:30am 14.5 13.1 12.2 86 1.3 SSW 11 15 6 8 1008.5 1008.4 0.0
24/04:00am 14.4 13.6 11.7 84 1.5 S 7 11 4 6 1008.6 1008.5 0.0
24/03:30am 14.7 15.3 11.8 83 1.6 CALM 0 0 0 0 1008.6 1008.5 0.0
24/03:00am 14.5 13.5 11.1 80 1.8 SSW 7 11 4 6 1008.8 1008.7 0.0
24/02:30am 15.3 14.1 11.7 79 1.9 S 9 11 5 6 1008.8 1008.7 0.0
24/02:00am 16.1 14.0 11.1 72 2.7 WNW 13 17 7 9 1009.0 1008.9 0.0
24/01:30am 16.0 14.3 11.2 73 2.6 NNW 11 15 6 8 1009.0 1008.9 0.0
24/01:00am 15.6 14.6 11.0 74 2.5 WNW 7 11 4 6 1008.9 1008.8 0.0
24/12:30am 15.9 14.7 11.7 76 2.3 WSW 9 17 5 9 1009.0 1008.9 0.0
24/12:00am 16.3 14.9 12.3 77 2.2 W 11 17 6 9 1009.4 1009.3 0.0
 
Date/Time
EDT
Temp
°C
App
Temp
°C
Dew
Point
°C
Rel
Hum
%
Delta-T
°C
Wind Press
QNH
hPa
Press
MSL
hPa
Rain since
9am
mm
Dir  Spd
km/h
Gust
km/h
Spd
kts
Gust
kts
23/11:30pm 16.7 12.3 11.8 73 2.7 W 26 30 14 16 1009.5 1009.4 0.0
23/11:00pm 16.7 13.1 12.0 74 2.6 W 22 28 12 15 1009.9 1009.8 0.0
23/10:30pm 17.1 11.1 12.0 72 2.8 W 35 41 19 22 1009.8 1009.7 0.0
23/10:00pm 17.2 10.3 11.7 70 3.0 W 39 43 21 23 1009.5 1009.4 0.0
23/09:30pm 17.3 10.8 11.8 70 3.0 W 37 44 20 24 1009.5 1009.4 0.0
23/09:00pm 17.3 11.8 12.0 71 2.9 W 32 37 17 20 1009.4 1009.3 0.0
23/08:30pm 17.7 11.6 11.7 68 3.3 W 35 39 19 21 1008.9 1008.8 0.0
23/08:00pm 18.2 12.2 12.0 67 3.4 W 35 44 19 24 1008.5 1008.4 0.0
23/07:30pm 18.6 9.7 11.9 65 3.7 W 50 56 27 30 1008.2 1008.1 0.0
23/07:00pm 19.0 8.8 11.3 61 4.2 W 56 63 30 34 1007.9 1007.8 0.0
23/06:30pm 19.3 9.0 11.1 59 4.5 W 56 65 30 35 1007.5 1007.4 0.0
23/06:00pm 19.7 11.7 11.2 58 4.7 W 44 52 24 28 1007.2 1007.1 0.0
23/05:52pm 19.9 14.0 11.1 57 4.8 W 33 52 18 28 1007.3 1007.2 0.0
23/05:30pm 20.3 13.8 10.4 53 5.4 WSW 35 46 19 25 1007.5 1007.4 0.0
23/05:00pm 20.8 16.3 10.0 50 5.9 WSW 24 39 13 21 1007.6 1007.5 0.0
23/04:30pm 21.4 17.9 10.9 51 5.8 SSW 20 28 11 15 1007.4 1007.3 0.0
23/04:00pm 20.9 18.8 11.3 54 5.3 S 13 17 7 9 1007.4 1007.3 0.0
23/03:30pm 20.7 18.8 11.9 57 4.9 S 13 19 7 10 1007.4 1007.3 0.0
23/03:00pm 20.0 18.2 12.0 60 4.5 S 13 17 7 9 1007.6 1007.5 0.0
23/02:30pm 19.8 16.9 9.7 52 5.4 SSE 15 19 8 10 1007.5 1007.4 0.0
23/02:00pm 20.9 17.5 9.2 47 6.2 SE 17 20 9 11 1007.7 1007.6 0.0
23/01:30pm 23.2 20.4 8.5 39 7.8 NE 13 19 7 10 1007.7 1007.6 0.0
23/01:00pm 22.0 19.6 9.9 46 6.6 WNW 13 20 7 11 1007.8 1007.7 0.0
23/12:30pm 22.0 18.8 7.0 38 7.7 WSW 13 20 7 11 1008.1 1008.0 0.0
23/12:00pm 22.1 18.8 7.9 40 7.5 W 15 20 8 11 1008.3 1008.2 0.0
23/11:30am 20.2 14.5 8.2 46 6.2 WNW 28 37 15 20 1008.4 1008.3 0.0
23/11:00am 19.8 13.5 7.5 45 6.3 WNW 30 35 16 19 1008.4 1008.3 0.0
23/10:30am 18.7 11.3 6.9 46 5.9 WNW 35 44 19 24 1008.5 1008.4 0.0
23/10:00am 19.0 12.2 7.1 46 6.0 WNW 32 43 17 23 1008.2 1008.1 0.0
23/09:30am 17.7 10.3 6.9 49 5.4 W 35 46 19 25 1008.1 1008.0 0.0
23/09:00am 17.1 9.2 7.7 54 4.8 W 39 46 21 25 1008.0 1007.9 0.0
23/08:30am 16.2 8.7 6.3 52 4.8 W 35 48 19 26 1007.9 1007.8 0.0
23/08:00am 15.7 9.6 6.4 54 4.5 W 28 35 15 19 1007.6 1007.5 0.0
23/07:30am 15.4 10.0 6.4 55 4.4 WNW 24 35 13 19 1007.4 1007.3 0.0
23/07:00am 14.9 9.0 6.0 55 4.3 WNW 26 41 14 22 1007.2 1007.1 0.0
23/06:55am 14.8 7.7 6.6 58 4.0 WNW 33 52 18 28 1007.1 1007.0 0.0
23/06:30am 14.5 6.3 6.6 59 3.8 WNW 39 54 21 29 1006.9 1006.8 0.0
23/06:00am 14.3 7.2 6.6 60 3.7 WNW 33 46 18 25 1006.8 1006.7 0.0
23/05:30am 14.3 6.7 7.6 64 3.3 W 37 46 20 25 1006.9 1006.8 0.0
23/05:00am 13.9 7.8 6.5 61 3.6 WNW 28 43 15 23 1006.4 1006.3 0.0
23/04:30am 13.9 7.1 6.7 62 3.5 WNW 32 43 17 23 1006.4 1006.3 0.0
23/04:00am 13.4 8.8 6.3 62 3.4 WNW 20 26 11 14 1006.5 1006.4 0.0
23/03:30am 13.4 8.4 6.5 63 3.3 WNW 22 33 12 18 1006.4 1006.3 0.0
23/03:00am 12.8 8.4 6.6 66 3.0 WNW 19 26 10 14 1006.9 1006.8 0.0
23/02:30am 12.5 9.4 5.7 63 3.2 WNW 11 15 6 8 1006.7 1006.6 0.0
23/02:00am 13.0 8.5 6.8 66 3.0 WNW 20 30 11 16 1006.4 1006.3 0.0
23/01:30am 13.3 7.7 7.1 66 3.0 WNW 26 33 14 18 1006.3 1006.2 0.0
23/01:00am 13.4 7.3 6.5 63 3.3 WNW 28 37 15 20 1006.6 1006.5 0.0
23/12:30am 13.6 6.2 6.7 63 3.3 W 35 43 19 23 1006.9 1006.8 0.0
23/12:00am 13.5 5.0 6.8 64 3.3 W 41 48 22 26 1007.0 1006.9 0.0
 
Date/Time
EDT
Temp
°C
App
Temp
°C
Dew
Point
°C
Rel
Hum
%
Delta-T
°C
Wind Press
QNH
hPa
Press
MSL
hPa
Rain since
9am
mm
Dir  Spd
km/h
Gust
km/h
Spd
kts
Gust
kts
22/11:30pm 13.4 5.7 7.0 65 3.1 W 37 41 20 22 1006.8 1006.7 0.0
22/11:00pm 13.4 5.7 7.0 65 3.1 W 37 44 20 24 1006.7 1006.6 0.0
22/10:41pm 13.2 7.3 7.4 68 2.8 W 28 48 15 26 1006.7 1006.6 0.0
22/10:30pm 13.0 8.1 8.5 74 2.2 WSW 24 30 13 16 1007.0 1006.9 0.0
22/10:00pm 13.0 7.3 8.5 74 2.3 WSW 28 35 15 19 1007.0 1006.9 0.0
22/09:30pm 13.0 6.6 8.5 74 2.2 WSW 32 41 17 22 1006.7 1006.6 0.0
22/09:00pm 13.3 6.1 9.0 75 2.2 WSW 37 48 20 26 1006.1 1006.0 0.0
22/08:30pm 13.5 5.9 9.0 74 2.3 WSW 39 48 21 26 1005.6 1005.5 0.0
22/08:00pm 13.7 6.1 9.0 73 2.4 WSW 39 52 21 28 1005.4 1005.3 0.0
22/07:30pm 14.5 7.3 9.3 71 2.7 WSW 37 50 20 27 1005.2 1005.1 0.0
22/07:00pm 15.4 8.7 9.5 68 3.1 SW 35 50 19 27 1005.1 1005.0 0.0
22/06:30pm 14.8 8.1 9.6 71 2.7 SW 35 48 19 26 1004.6 1004.5 0.0
22/06:12pm 15.6 9.7 10.4 71 2.7 SW 32 50 17 27 1004.2 1004.1 0.0
22/06:00pm 15.1 8.6 10.5 74 2.4 SW 35 50 19 27 1004.0 1003.9 0.0
22/05:32pm 15.7 7.4 10.0 69 3.0 WSW 44 67 24 36 1003.8 1003.7 0.0
22/05:30pm 15.7 7.4 10.0 69 3.0 WSW 44 57 24 31 1003.7 1003.6 0.0
22/05:00pm 16.5 7.9 10.4 67 3.3 WSW 46 61 25 33 1003.1 1003.0 0.0
22/04:42pm 17.0 8.8 10.4 65 3.5 WSW 44 63 24 34 1003.0 1002.9 0.0
22/04:30pm 16.9 8.3 10.3 65 3.5 WSW 46 61 25 33 1002.8 1002.7 0.0
22/04:00pm 17.4 8.9 10.5 64 3.7 WSW 46 61 25 33 1002.7 1002.6 0.0
22/03:30pm 17.5 10.1 9.9 61 4.0 WSW 39 48 21 26 1002.8 1002.7 0.0
22/03:00pm 17.5 10.1 11.1 66 3.5 WSW 41 52 22 28 1002.6 1002.5 0.0
22/02:30pm 16.8 9.0 9.7 63 3.7 WSW 41 61 22 33 1002.6 1002.5 0.0
22/02:00pm 15.9 9.0 10.4 70 2.9 WSW 37 50 20 27 1002.3 1002.2 0.0
22/01:30pm 15.8 8.3 11.0 73 2.6 WSW 41 57 22 31 1001.9 1001.8 0.0
22/01:26pm 15.8 9.1 11.0 73 2.6 WSW 37 56 20 30 1001.9 1001.8 0.0
22/01:00pm 15.9 9.0 10.4 70 2.9 WSW 37 52 20 28 1001.7 1001.7 0.0
22/12:42pm 16.6 11.3 9.8 64 3.6 WSW 28 46 15 25 1001.6 1001.6 0.0
22/12:30pm 17.7 14.2 8.6 55 4.7 WSW 17 24 9 13 1001.4 1001.4 0.0
22/12:00pm 20.5 13.4 9.7 50 5.8 W 37 50 20 27 1000.8 1000.7 0.0
22/11:31am 19.5 10.9 8.8 50 5.6 W 44 63 24 34 1000.7 1000.6 0.0
22/11:30am 19.4 10.3 8.4 49 5.7 WNW 46 63 25 34 1000.7 1000.6 0.0
22/11:03am 19.4 10.1 9.0 51 5.5 WNW 48 69 26 37 1000.3 1000.2 0.0
22/11:00am 19.6 10.5 9.8 53 5.3 WNW 48 63 26 34 1000.4 1000.3 0.0
22/10:48am 19.8 11.5 9.4 51 5.5 WNW 43 65 23 35 1000.3 1000.2 0.0
22/10:30am 19.4 11.9 9.6 53 5.2 WNW 39 52 21 28 1000.5 1000.4 0.0
22/10:00am 18.5 11.5 9.8 57 4.6 WNW 37 50 20 27 1000.6 1000.5 0.0
22/09:30am 17.4 8.9 9.1 58 4.3 WNW 44 57 24 31 1000.5 1000.4 0.0
22/09:00am 17.9 9.3 8.2 53 5.0 WNW 43 56 23 30 1000.8 1000.7 0.0
22/08:32am 17.2 6.8 6.1 48 5.4 WNW 50 69 27 37 1000.3 1000.2 0.0
22/08:30am 17.2 6.9 6.4 49 5.3 WNW 50 65 27 35 1000.3 1000.2 0.0
22/08:01am 16.7 5.4 5.3 47 5.5 WNW 54 72 29 39 999.8 999.7 0.0
22/08:00am 16.6 5.4 5.9 49 5.2 WNW 54 70 29 38 999.8 999.7 0.0
22/07:48am 17.1 6.5 5.1 45 5.8 WNW 50 69 27 37 1000.4 1000.3 0.0
22/07:30am 17.0 6.4 5.0 45 5.7 W 50 65 27 35 1000.6 1000.5 0.0
22/07:15am 17.0 8.2 3.7 41 6.2 W 39 69 21 37 1000.6 1000.5 0.0
22/07:14am 17.0 9.0 3.7 41 6.2 W 35 69 19 37 1000.6 1000.5 0.0
22/07:07am 16.9 9.9 4.3 43 5.9 WNW 30 48 16 26 1000.5 1000.4 0.0
22/07:00am 17.2 9.5 2.4 37 6.8 WNW 32 48 17 26 1000.4 1000.3 0.0
22/06:41am 16.9 9.2 3.6 41 6.2 WNW 33 52 18 28 1000.5 1000.4 0.0
22/06:30am 17.0 9.4 3.7 41 6.2 WNW 33 44 18 24 1000.1 1000.0 0.0
22/06:00am 16.9 10.4 2.5 38 6.6 NW 26 37 14 20 1000.2 1000.1 0.0
22/05:30am 16.9 10.1 1.0 34 7.0 WNW 26 44 14 24 1000.6 1000.5 0.0
22/05:26am 16.8 10.4 0.9 34 7.0 WNW 24 44 13 24 1000.6 1000.5 0.0
22/05:00am 14.4 11.2 5.2 54 4.4 WNW 11 17 6 9 1000.7 1000.6 0.0
22/04:30am 13.6 11.5 6.5 62 3.4 W 7 11 4 6 1000.9 1000.8 0.0
22/04:00am 13.6 12.3 7.8 68 2.9 E 4 6 2 3 1001.1 1001.1 0.0
22/03:30am 13.8 10.5 9.5 75 2.2 N 17 20 9 11 1001.5 1001.5 0.0
22/03:00am 13.2 10.1 10.4 83 1.5 N 17 20 9 11 1001.5 1001.5 0.0
22/02:30am 13.4 11.6 10.9 85 1.3 NNW 11 15 6 8 1002.6 1002.5 0.0
22/02:00am 13.5 11.4 11.0 85 1.3 N 13 17 7 9 1003.2 1003.1 0.0
22/01:30am 13.5 10.6 11.0 85 1.3 N 17 22 9 12 1003.5 1003.4 0.0
22/01:00am 13.4 10.2 11.1 86 1.2 N 19 28 10 15 1004.1 1004.0 0.0
22/12:30am 13.1 10.5 10.8 86 1.2 N 15 20 8 11 1004.7 1004.6 0.0
22/12:00am 13.0 9.4 10.4 84 1.4 N 20 28 11 15 1005.1 1005.0 0.0
 
Date/Time
EDT
Temp
°C
App
Temp
°C
Dew
Point
°C
Rel
Hum
%
Delta-T
°C
Wind Press
QNH
hPa
Press
MSL
hPa
Rain since
9am
mm
Dir  Spd
km/h
Gust
km/h
Spd
kts
Gust
kts
21/11:30pm 12.8 9.1 10.2 84 1.3 N 20 26 11 14 1005.7 1005.6 0.0
21/11:00pm 11.8 9.8 8.8 82 1.5 NNW 9 13 5 7 1006.6 1006.5 0.0
21/10:30pm 12.4 10.6 9.4 82 1.5 NW 9 11 5 6 1007.1 1007.0 0.0
21/10:00pm 11.8 10.2 8.8 82 1.5 N 7 13 4 7 1007.9 1007.8 0.0
21/09:30pm 12.3 10.9 9.0 80 1.7 NE 6 7 3 4 1008.4 1008.3 0.0

Latest Capital City Observations: Canberra | Sydney | Melbourne | Brisbane | Adelaide | Perth | Hobart | Darwin

Other formats

Comma delimited format used in spreadsheet applications
http://www.bom.gov.au/fwo/IDT60901/IDT60901.95967.axf

JavaScript Object Notation format (JSON) in row-major order
http://www.bom.gov.au/fwo/IDT60901/IDT60901.95967.json

Data quality

Most of these data are generated automatically and are frequently updated. Quality checks on data are not normally performed. It is possible for incorrect values to appear. Refer to information at About Latest Weather Observations and please check the disclaimer before using these data.